Ncc Najd — HZAK — position and weather

sailwx.info

Track history (hours):
 
Tides and Currents Weather Stations Pressure Air Temp Water Temp Dewpoint Dewpoint Depression Visibility Wind Speed Wind Dir Waves Ship Positions

Ncc Najd

Last reported at 2016-Feb-07 03:07 UTC. Time now 2016-Feb-07 08:41 UTC.
Position N 29°59' E 121°49'.

Length 183 m; draft 9.5 m.

Type: Tanker. MMSI: 403579000.

Date/timePositionNaut miles runAvg speedWind from/ knotsBaromVisibWave heightAir tempDewpointWater temp
2016-Feb-07 03:07N 29°59' E 121°49'4 7.8
2016-Feb-07 02:33N 29°59' E 121°54'1312.8
2016-Feb-07 01:33N 29°56' E 122°09'1312.2
2016-Feb-07 00:29N 29°45' E 122°18'4 4.1
2016-Feb-06 23:31N 29°46' E 122°23'0 0.0
2016-Feb-06 11:29N 29°46' E 122°22'6 6.0
2016-Feb-06 10:24N 29°45' E 122°30'34011.4
2016-Feb-05 04:33N 24°57' E 119°08'9 9.5
2016-Feb-05 03:33N 25°04' E 119°02'7 5.5
2016-Feb-05 02:15N 25°11' E 118°59'0 0.0
2016-Feb-05 01:09N 25°11' E 118°59'0 0.0
2016-Feb-05 00:27N 25°11' E 118°59'0 0.0
2016-Feb-04 23:33N 25°11' E 118°59'0 0.0
2016-Feb-04 22:03N 25°11' E 118°59'0 0.0
2016-Feb-04 21:27N 25°11' E 118°59'0 0.0
2016-Feb-04 20:27N 25°11' E 118°59'0 0.0
2016-Feb-04 19:27N 25°11' E 118°59'0 0.0
2016-Feb-04 18:33N 25°11' E 118°59'0 0.0
2016-Feb-04 17:27N 25°11' E 118°59'0 0.0
2016-Feb-04 16:09N 25°11' E 118°59'0 0.0
2016-Feb-04 15:33N 25°11' E 118°59'0 0.0
2016-Feb-04 13:33N 25°11' E 118°59'0 0.0
2016-Feb-04 12:09N 25°11' E 118°59'0 0.0
2016-Feb-04 11:33N 25°11' E 118°59'0 0.0
2016-Feb-04 10:33N 25°11' E 118°59'0 0.0
2016-Feb-04 09:27N 25°11' E 118°59'0 0.0
2016-Feb-04 08:09N 25°11' E 118°59'0 0.0
2016-Feb-04 07:27N 25°11' E 118°59'0 0.0
2016-Feb-04 06:33N 25°11' E 118°59'0 0.0
2016-Feb-04 05:09N 25°11' E 118°59'0 0.0
2016-Feb-04 04:33N 25°11' E 118°59'0 0.0
2016-Feb-04 02:27N 25°11' E 118°59'1 0.9
2016-Feb-04 01:33N 25°10' E 118°59'10 9.7
2016-Feb-04 00:33N 25°01' E 119°03'4 3.2
2016-Feb-03 23:11N 24°57' E 119°05'0 0.0
2016-Feb-03 22:29N 24°57' E 119°05'0 0.0
2016-Feb-03 19:05N 24°57' E 119°05'0 0.0
2016-Feb-03 18:29N 24°57' E 119°05'0 0.0
2016-Feb-03 17:29N 24°57' E 119°05'0 0.0
2016-Feb-03 16:23N 24°57' E 119°05'0 0.0
2016-Feb-03 15:23N 24°57' E 119°05'0 0.0
2016-Feb-03 13:29N 24°57' E 119°05'0 0.3
2016-Feb-03 12:33N 24°57' E 119°05'4 3.9
2016-Feb-03 11:34N 24°54' E 119°02'1110.8
2016-Feb-03 10:33N 24°44' E 119°01'1313.0
2016-Feb-03 09:33N 24°31' E 119°00'1412.9
2016-Feb-03 08:29N 24°20' E 118°51'3813.0
2016-Feb-03 05:33N 23°51' E 118°23'27311.4
2016-Feb-02 05:32N 22°02' E 113°52'1110.9
2016-Feb-02 04:33N 22°12' E 113°47'3112.8
2016-Feb-02 02:08N 22°42' E 113°41'1 1.3
2016-Feb-02 01:21N 22°42' E 113°42'7 8.7
2016-Feb-02 00:33N 22°47' E 113°37'1010.1
2016-Feb-01 23:33N 22°56' E 113°33'0 0.5
2016-Feb-01 22:33N 22°57' E 113°33'0 0.0
2016-Feb-01 21:33N 22°57' E 113°33'0 0.0
2016-Feb-01 20:27N 22°57' E 113°33'0 0.0
2016-Feb-01 19:33N 22°57' E 113°33'0 0.0
2016-Feb-01 18:33N 22°57' E 113°33'0 0.0
2016-Feb-01 17:21N 22°57' E 113°33'0 0.0
2016-Feb-01 15:27N 22°57' E 113°33'0 0.0
2016-Feb-01 14:27N 22°57' E 113°33'0 0.0
2016-Feb-01 13:33N 22°57' E 113°33'0 0.0
2016-Feb-01 12:33N 22°57' E 113°33'0 0.0
2016-Feb-01 11:09N 22°57' E 113°33'0 0.0
2016-Feb-01 10:27N 22°57' E 113°33'0 0.0
2016-Feb-01 09:33N 22°57' E 113°33'0 0.0
2016-Feb-01 08:33N 22°57' E 113°33'0 0.0
2016-Feb-01 07:33N 22°57' E 113°33'0 0.0
2016-Feb-01 06:33N 22°57' E 113°33'0 0.0
2016-Feb-01 05:21N 22°57' E 113°33'0 0.0
2016-Feb-01 04:29N 22°57' E 113°33'2 1.8
2016-Feb-01 03:33N 22°55' E 113°34'9 8.5
2016-Feb-01 02:33N 22°47' E 113°37'2511.5
2016-Feb-01 00:25N 22°24' E 113°46'1111.7
2016-Jan-31 23:29N 22°13' E 113°48'8 8.4
2016-Jan-31 22:33N 22°06' E 113°49'3 0.3
2016-Jan-31 13:29N 22°04' E 113°52'  
Track history (hours):
 
Tides and Currents Weather Stations Pressure Air Temp Water Temp Dewpoint Dewpoint Depression Visibility Wind Speed Wind Dir Waves Ship Positions

Ncc Najd

Last reported at 2016-Feb-07 03:07 UTC. Time now 2016-Feb-07 08:41 UTC.
Position N 29°59' E 121°49'.

Length 183 m; draft 9.5 m.

Type: Tanker. MMSI: 403579000.

Date/timePositionNaut miles runAvg speedWind from/ knotsBaromVisibWave heightAir tempDewpointWater temp
2016-Feb-07 03:07N 29°59' E 121°49'4 7.8
2016-Feb-07 02:33N 29°59' E 121°54'1312.8
2016-Feb-07 01:33N 29°56' E 122°09'1312.2
2016-Feb-07 00:29N 29°45' E 122°18'4 4.1
2016-Feb-06 23:31N 29°46' E 122°23'0 0.0
2016-Feb-06 11:29N 29°46' E 122°22'6 6.0
2016-Feb-06 10:24N 29°45' E 122°30'34011.4
2016-Feb-05 04:33N 24°57' E 119°08'9 9.5
2016-Feb-05 03:33N 25°04' E 119°02'7 5.5
2016-Feb-05 02:15N 25°11' E 118°59'0 0.0
2016-Feb-05 01:09N 25°11' E 118°59'0 0.0
2016-Feb-05 00:27N 25°11' E 118°59'0 0.0
2016-Feb-04 23:33N 25°11' E 118°59'0 0.0
2016-Feb-04 22:03N 25°11' E 118°59'0 0.0
2016-Feb-04 21:27N 25°11' E 118°59'0 0.0
2016-Feb-04 20:27N 25°11' E 118°59'0 0.0
2016-Feb-04 19:27N 25°11' E 118°59'0 0.0
2016-Feb-04 18:33N 25°11' E 118°59'0 0.0
2016-Feb-04 17:27N 25°11' E 118°59'0 0.0
2016-Feb-04 16:09N 25°11' E 118°59'0 0.0
2016-Feb-04 15:33N 25°11' E 118°59'0 0.0
2016-Feb-04 13:33N 25°11' E 118°59'0 0.0
2016-Feb-04 12:09N 25°11' E 118°59'0 0.0
2016-Feb-04 11:33N 25°11' E 118°59'0 0.0
2016-Feb-04 10:33N 25°11' E 118°59'0 0.0
2016-Feb-04 09:27N 25°11' E 118°59'0 0.0
2016-Feb-04 08:09N 25°11' E 118°59'0 0.0
2016-Feb-04 07:27N 25°11' E 118°59'0 0.0
2016-Feb-04 06:33N 25°11' E 118°59'0 0.0
2016-Feb-04 05:09N 25°11' E 118°59'0 0.0
2016-Feb-04 04:33N 25°11' E 118°59'0 0.0
2016-Feb-04 02:27N 25°11' E 118°59'1 0.9
2016-Feb-04 01:33N 25°10' E 118°59'10 9.7
2016-Feb-04 00:33N 25°01' E 119°03'4 3.2
2016-Feb-03 23:11N 24°57' E 119°05'0 0.0
2016-Feb-03 22:29N 24°57' E 119°05'0 0.0
2016-Feb-03 19:05N 24°57' E 119°05'0 0.0
2016-Feb-03 18:29N 24°57' E 119°05'0 0.0
2016-Feb-03 17:29N 24°57' E 119°05'0 0.0
2016-Feb-03 16:23N 24°57' E 119°05'0 0.0
2016-Feb-03 15:23N 24°57' E 119°05'0 0.0
2016-Feb-03 13:29N 24°57' E 119°05'0 0.3
2016-Feb-03 12:33N 24°57' E 119°05'4 3.9
2016-Feb-03 11:34N 24°54' E 119°02'1110.8
2016-Feb-03 10:33N 24°44' E 119°01'1313.0
2016-Feb-03 09:33N 24°31' E 119°00'1412.9
2016-Feb-03 08:29N 24°20' E 118°51'3813.0
2016-Feb-03 05:33N 23°51' E 118°23'27311.4
2016-Feb-02 05:32N 22°02' E 113°52'1110.9
2016-Feb-02 04:33N 22°12' E 113°47'3112.8
2016-Feb-02 02:08N 22°42' E 113°41'1 1.3
2016-Feb-02 01:21N 22°42' E 113°42'7 8.7
2016-Feb-02 00:33N 22°47' E 113°37'1010.1
2016-Feb-01 23:33N 22°56' E 113°33'0 0.5
2016-Feb-01 22:33N 22°57' E 113°33'0 0.0
2016-Feb-01 21:33N 22°57' E 113°33'0 0.0
2016-Feb-01 20:27N 22°57' E 113°33'0 0.0
2016-Feb-01 19:33N 22°57' E 113°33'0 0.0
2016-Feb-01 18:33N 22°57' E 113°33'0 0.0
2016-Feb-01 17:21N 22°57' E 113°33'0 0.0
2016-Feb-01 15:27N 22°57' E 113°33'0 0.0
2016-Feb-01 14:27N 22°57' E 113°33'0 0.0
2016-Feb-01 13:33N 22°57' E 113°33'0 0.0
2016-Feb-01 12:33N 22°57' E 113°33'0 0.0
2016-Feb-01 11:09N 22°57' E 113°33'0 0.0
2016-Feb-01 10:27N 22°57' E 113°33'0 0.0
2016-Feb-01 09:33N 22°57' E 113°33'0 0.0
2016-Feb-01 08:33N 22°57' E 113°33'0 0.0
2016-Feb-01 07:33N 22°57' E 113°33'0 0.0
2016-Feb-01 06:33N 22°57' E 113°33'0 0.0
2016-Feb-01 05:21N 22°57' E 113°33'0 0.0
2016-Feb-01 04:29N 22°57' E 113°33'2 1.8
2016-Feb-01 03:33N 22°55' E 113°34'9 8.5
2016-Feb-01 02:33N 22°47' E 113°37'2511.5
2016-Feb-01 00:25N 22°24' E 113°46'1111.7
2016-Jan-31 23:29N 22°13' E 113°48'8 8.4
2016-Jan-31 22:33N 22°06' E 113°49'3 0.3
2016-Jan-31 13:29N 22°04' E 113°52'  

Dump ship's entire track history